Time;durP1;ratioP1;P1;durP2;ratioP2;P2;SDS_P1;SDS_P2;PMS_P1;PMS_P2;Temp;Humidity;BMP_temperature;BMP_pressure;BME280_temperature;BME280_humidity;BME280_pressure;Samples;Min_cycle;Max_cycle;Signal;HPM_P1;HPM_P2
2021/12/13 00:01:04;;;;;;;28.13;14.77;;;4.00;99.90;;;;;;5022784;28;20045;-70
2021/12/13 00:03:53;;;;;;;27.17;16.13;;;4.10;99.90;;;;;;5003309;28;20504;-69
2021/12/13 00:06:28;;;;;;;27.15;15.30;;;4.00;99.90;;;;;;5026331;28;20037;-70
2021/12/13 00:09:01;;;;;;;27.45;15.30;;;4.10;99.90;;;;;;5028399;28;20050;-69
2021/12/13 00:11:33;;;;;;;29.85;16.92;;;4.10;99.90;;;;;;5028291;28;20468;-69
2021/12/13 00:14:10;;;;;;;27.75;16.08;;;4.00;99.90;;;;;;5026424;28;20052;-69
2021/12/13 00:16:42;;;;;;;27.65;15.63;;;4.00;99.90;;;;;;5028012;28;20065;-69
2021/12/13 00:19:17;;;;;;;30.48;16.10;;;4.00;99.90;;;;;;5028037;28;20049;-69
2021/12/13 00:21:48;;;;;;;32.00;17.08;;;4.00;99.90;;;;;;5028454;28;20041;-69
2021/12/13 00:24:31;;;;;;;28.08;15.88;;;4.00;99.90;;;;;;5022832;28;20117;-69
2021/12/13 00:27:22;;;;;;;22.40;13.95;;;4.00;99.90;;;;;;5008796;28;20038;-69
2021/12/13 00:29:54;;;;;;;22.95;13.85;;;4.00;99.90;;;;;;5035551;28;20052;-69
2021/12/13 00:32:47;;;;;;;23.35;13.20;;;4.10;99.90;;;;;;5026037;28;20404;-69
2021/12/13 00:35:21;;;;;;;26.15;14.43;;;4.10;99.90;;;;;;5018218;28;20457;-69
2021/12/13 00:37:57;;;;;;;24.65;14.65;;;4.10;99.90;;;;;;5026350;28;20064;-69
2021/12/13 00:40:30;;;;;;;23.92;14.15;;;4.10;99.90;;;;;;5017972;28;20053;-69
2021/12/13 00:43:03;;;;;;;23.15;13.88;;;4.10;99.90;;;;;;5022457;28;20041;-69
2021/12/13 00:45:36;;;;;;;23.90;13.98;;;4.20;99.90;;;;;;5018580;28;20341;-69
2021/12/13 00:48:06;;;;;;;27.05;14.68;;;4.20;99.90;;;;;;5014196;28;20041;-69
2021/12/13 00:50:43;;;;;;;21.55;14.88;;;4.20;99.90;;;;;;5028278;28;20503;-69
2021/12/13 00:53:20;;;;;;;25.08;14.70;;;4.20;99.90;;;;;;5023112;28;20401;-70
2021/12/13 00:55:48;;;;;;;23.58;12.95;;;4.20;99.90;;;;;;5018770;28;20046;-70
2021/12/13 00:58:23;;;;;;;22.35;13.32;;;4.20;99.90;;;;;;5017655;28;20068;-70
2021/12/13 01:01:03;;;;;;;22.08;14.02;;;4.20;99.90;;;;;;5015071;28;20045;-70
2021/12/13 01:03:46;;;;;;;22.13;13.38;;;4.20;99.90;;;;;;5027424;28;20099;-69
2021/12/13 01:06:50;;;;;;;22.02;12.85;;;4.20;99.90;;;;;;5027710;28;20041;-69
2021/12/13 01:09:42;;;;;;;22.70;13.43;;;4.30;99.90;;;;;;5027494;28;20046;-69
2021/12/13 01:12:14;;;;;;;19.95;12.85;;;4.30;99.90;;;;;;5025004;28;20125;-69
2021/12/13 01:14:55;;;;;;;22.52;13.00;;;4.30;99.90;;;;;;5025278;28;20077;-69
2021/12/13 01:20:32;;;;;;;23.77;14.63;;;4.30;99.90;;;;;;5024550;28;20045;-69
2021/12/13 01:23:14;;;;;;;23.00;14.40;;;4.40;99.90;;;;;;5029124;28;20511;-69
2021/12/13 01:25:49;;;;;;;23.45;14.18;;;4.40;99.90;;;;;;5028106;28;20056;-70
2021/12/13 01:28:22;;;;;;;22.35;12.80;;;4.40;99.90;;;;;;5026078;28;20038;-70
2021/12/13 01:31:12;;;;;;;22.85;13.85;;;4.40;99.90;;;;;;5022180;28;20799;-70
2021/12/13 01:33:44;;;;;;;22.80;13.52;;;4.40;99.90;;;;;;5020729;28;20137;-69
2021/12/13 01:36:21;;;;;;;21.70;13.07;;;4.40;99.90;;;;;;5027758;28;20037;-68
2021/12/13 01:38:56;;;;;;;22.35;13.35;;;4.40;99.90;;;;;;5028456;28;20488;-69
2021/12/13 01:41:33;;;;;;;23.75;12.98;;;4.40;99.90;;;;;;5028348;28;20045;-69
2021/12/13 01:44:09;;;;;;;27.27;13.20;;;4.40;99.90;;;;;;5019123;28;20084;-70
2021/12/13 01:46:40;;;;;;;23.75;12.82;;;4.40;99.90;;;;;;5013161;28;20469;-69
2021/12/13 01:49:08;;;;;;;22.30;12.88;;;4.40;99.90;;;;;;5023199;28;20037;-69
2021/12/13 01:51:36;;;;;;;26.80;14.00;;;4.40;99.90;;;;;;5026803;28;20049;-69
2021/12/13 01:54:18;;;;;;;22.20;11.95;;;4.40;99.90;;;;;;5029897;28;20046;-69
2021/12/13 01:56:59;;;;;;;19.02;11.98;;;4.30;99.90;;;;;;5020241;28;20606;-69
2021/12/13 02:02:37;;;;;;;22.63;12.73;;;4.30;99.90;;;;;;5021849;28;20053;-69
2021/12/13 02:05:12;;;;;;;22.65;13.00;;;4.40;99.90;;;;;;5022189;28;20060;-70
2021/12/13 02:08:12;;;;;;;23.45;12.93;;;4.40;99.90;;;;;;5019515;28;20056;-69
2021/12/13 02:10:53;;;;;;;23.65;12.45;;;4.40;99.90;;;;;;5026895;28;20069;-69
2021/12/13 02:13:24;;;;;;;22.27;12.60;;;4.40;99.90;;;;;;5019941;28;20046;-69
2021/12/13 02:18:51;;;;;;;27.98;13.80;;;4.50;99.90;;;;;;5030598;28;20088;-69
2021/12/13 02:21:28;;;;;;;23.27;13.63;;;4.40;99.90;;;;;;5020855;28;20065;-69
2021/12/13 02:24:04;;;;;;;27.73;15.38;;;4.40;99.90;;;;;;5022243;28;20041;-68
2021/12/13 02:26:34;;;;;;;27.58;15.40;;;4.40;99.90;;;;;;5030213;28;20441;-69
2021/12/13 02:29:17;;;;;;;27.10;14.77;;;4.40;99.90;;;;;;5028605;28;20420;-69
2021/12/13 02:31:45;;;;;;;27.85;16.80;;;4.50;99.90;;;;;;5030116;28;20041;-69
2021/12/13 02:34:16;;;;;;;26.92;16.02;;;4.40;99.90;;;;;;5028526;28;20041;-68
2021/12/13 02:36:52;;;;;;;29.10;16.08;;;4.50;99.90;;;;;;5030171;28;20072;-68
2021/12/13 02:39:28;;;;;;;29.30;15.80;;;4.50;99.90;;;;;;5030301;28;20056;-68
2021/12/13 02:41:57;;;;;;;26.13;14.68;;;4.50;99.90;;;;;;5029790;28;20309;-69
2021/12/13 02:44:37;;;;;;;30.02;15.70;;;4.50;99.90;;;;;;5035082;28;20064;-69
2021/12/13 02:47:14;;;;;;;30.00;15.98;;;4.50;99.90;;;;;;5018889;28;20045;-69
2021/12/13 02:49:42;;;;;;;28.02;15.38;;;4.50;99.90;;;;;;5028470;28;20436;-69
2021/12/13 02:52:14;;;;;;;25.00;14.82;;;4.50;99.90;;;;;;5028713;28;20033;-69
2021/12/13 02:54:47;;;;;;;27.08;15.25;;;4.50;99.90;;;;;;5029697;28;20045;-68
2021/12/13 02:57:38;;;;;;;29.15;15.05;;;4.50;99.90;;;;;;5011872;28;20123;-68
2021/12/13 03:00:12;;;;;;;27.67;15.60;;;4.50;99.90;;;;;;5024660;28;20049;-69
2021/12/13 03:02:42;;;;;;;26.75;14.88;;;4.50;99.90;;;;;;5009068;28;20049;-69
2021/12/13 03:05:21;;;;;;;27.20;14.75;;;4.50;99.90;;;;;;5026022;28;20081;-69
2021/12/13 03:07:54;;;;;;;31.08;15.85;;;4.50;99.90;;;;;;5008545;28;20046;-69
2021/12/13 03:10:29;;;;;;;32.55;16.83;;;4.50;99.90;;;;;;5017584;28;20045;-69
2021/12/13 03:12:57;;;;;;;25.70;14.40;;;4.50;99.90;;;;;;5028799;28;20041;-69
2021/12/13 03:15:28;;;;;;;22.98;13.57;;;4.60;99.90;;;;;;5028689;28;20041;-69
2021/12/13 03:17:55;;;;;;;26.35;14.38;;;4.60;99.90;;;;;;5021278;28;20524;-69
2021/12/13 03:21:00;;;;;;;26.83;14.52;;;4.60;99.90;;;;;;5025959;28;20041;-69
2021/12/13 03:24:05;;;;;;;26.88;13.77;;;4.60;99.90;;;;;;5018449;28;20072;-69
2021/12/13 03:26:53;;;;;;;25.83;13.60;;;4.60;99.90;;;;;;4994479;28;20050;-69
2021/12/13 03:29:41;;;;;;;27.10;13.30;;;4.70;99.90;;;;;;5004833;28;20834;-69
2021/12/13 03:32:13;;;;;;;29.00;14.05;;;4.70;99.90;;;;;;5006550;28;20050;-69
2021/12/13 03:34:50;;;;;;;22.40;12.50;;;4.70;99.90;;;;;;5000743;28;20477;-69
2021/12/13 03:37:21;;;;;;;23.77;12.80;;;4.70;99.90;;;;;;5001824;28;20068;-69
2021/12/13 03:39:56;;;;;;;31.65;14.07;;;4.70;99.90;;;;;;4996511;28;20085;-69
2021/12/13 03:42:31;;;;;;;23.13;12.90;;;4.70;99.90;;;;;;5004699;28;20046;-69
2021/12/13 03:45:04;;;;;;;24.42;13.40;;;4.70;99.90;;;;;;4984124;28;20042;-69
2021/12/13 03:47:38;;;;;;;20.88;12.70;;;4.70;99.90;;;;;;4999352;28;20049;-69
2021/12/13 03:50:11;;;;;;;28.98;14.35;;;4.70;99.90;;;;;;4988702;28;20472;-69
2021/12/13 03:52:44;;;;;;;27.63;14.48;;;4.70;99.90;;;;;;4989319;28;20432;-69
2021/12/13 03:55:15;;;;;;;29.98;14.70;;;4.80;99.90;;;;;;4999900;28;20050;-68
2021/12/13 03:57:50;;;;;;;29.15;15.18;;;4.80;99.90;;;;;;5002331;28;20527;-69
2021/12/13 04:00:24;;;;;;;26.92;13.32;;;4.80;99.90;;;;;;4998372;28;20050;-69
2021/12/13 04:02:56;;;;;;;26.83;13.85;;;4.80;99.90;;;;;;5019441;28;20044;-69
2021/12/13 04:05:25;;;;;;;;;;;4.80;99.90;;;;;;5017394;28;20136;-69
2021/12/13 04:07:56;;;;;;;28.15;14.40;;;4.80;99.90;;;;;;5007496;28;19922;-69
2021/12/13 04:10:27;;;;;;;24.65;15.32;;;4.80;99.90;;;;;;5023132;28;20042;-69
2021/12/13 04:13:00;;;;;;;29.35;14.85;;;4.80;99.90;;;;;;5028249;28;20045;-69
2021/12/13 04:21:46;;;;;;;22.83;12.43;;;4.80;99.90;;;;;;5025308;28;20041;-69
2021/12/13 04:24:31;;;;;;;27.60;14.43;;;4.80;99.90;;;;;;5025391;28;20543;-69
2021/12/13 04:27:16;;;;;;;25.30;13.98;;;4.80;99.90;;;;;;5025738;28;20416;-69
2021/12/13 04:29:44;;;;;;;24.45;13.05;;;4.80;99.90;;;;;;5022651;28;20041;-69
2021/12/13 04:32:17;;;;;;;25.90;13.77;;;4.80;99.90;;;;;;5019565;28;20065;-69
2021/12/13 04:34:44;;;;;;;27.67;13.90;;;4.90;99.90;;;;;;5026740;28;20056;-69
2021/12/13 04:37:16;;;;;;;25.10;12.73;;;4.90;99.90;;;;;;5027179;28;20220;-69
2021/12/13 04:39:45;;;;;;;22.33;12.38;;;4.90;99.90;;;;;;5024841;28;20041;-69
2021/12/13 04:42:17;;;;;;;21.73;12.85;;;4.90;99.90;;;;;;5027086;28;20074;-69
2021/12/13 04:44:57;;;;;;;22.67;12.60;;;4.90;99.90;;;;;;5026786;28;20045;-69
2021/12/13 04:47:33;;;;;;;22.02;12.77;;;4.90;99.90;;;;;;5019159;28;20065;-69
2021/12/13 04:50:19;;;;;;;26.40;13.50;;;4.90;99.90;;;;;;5024860;28;20518;-69
2021/12/13 04:52:48;;;;;;;26.90;14.18;;;4.90;99.90;;;;;;5021067;28;20480;-69
2021/12/13 04:55:27;;;;;;;22.58;13.02;;;4.90;99.90;;;;;;5022423;28;20054;-69
2021/12/13 04:57:57;;;;;;;26.10;14.77;;;5.00;99.90;;;;;;5015256;28;20105;-69
2021/12/13 05:00:30;;;;;;;24.48;13.40;;;5.00;99.90;;;;;;5031655;28;20061;-69
2021/12/13 05:03:01;;;;;;;25.88;14.13;;;5.00;99.90;;;;;;5016631;28;20136;-69
2021/12/13 05:05:31;;;;;;;25.88;14.82;;;5.00;99.90;;;;;;5015717;28;20056;-69
2021/12/13 05:07:59;;;;;;;28.13;15.65;;;5.10;99.90;;;;;;5025597;28;20050;-69
2021/12/13 05:10:29;;;;;;;21.67;13.65;;;5.10;99.90;;;;;;5030280;28;20042;-69
2021/12/13 05:13:13;;;;;;;24.25;12.98;;;5.10;99.90;;;;;;5023703;28;20056;-69
2021/12/13 05:15:44;;;;;;;21.25;12.23;;;5.10;99.90;;;;;;5031959;28;20049;-69
2021/12/13 05:18:20;;;;;;;22.35;12.38;;;5.10;99.90;;;;;;5032376;28;20057;-69
2021/12/13 05:20:55;;;;;;;23.55;13.10;;;5.10;99.90;;;;;;5019516;28;20076;-69
2021/12/13 05:23:23;;;;;;;23.40;13.10;;;5.10;99.90;;;;;;5031872;28;20037;-69
2021/12/13 05:26:10;;;;;;;22.92;13.10;;;5.10;99.90;;;;;;5030234;28;20045;-69
2021/12/13 05:28:46;;;;;;;22.30;13.20;;;5.10;99.90;;;;;;5016557;28;20049;-69
2021/12/13 05:31:21;;;;;;;21.02;12.35;;;5.10;99.90;;;;;;5030233;28;20116;-69
2021/12/13 05:33:57;;;;;;;21.27;12.65;;;5.10;99.90;;;;;;5031440;28;20052;-69
2021/12/13 05:36:29;;;;;;;22.30;12.80;;;5.10;99.90;;;;;;5029585;28;20038;-69
2021/12/13 05:39:15;;;;;;;20.33;12.90;;;5.10;99.90;;;;;;5032045;28;20049;-69
2021/12/13 05:41:56;;;;;;;21.83;12.27;;;5.10;99.90;;;;;;5029214;28;20056;-69
2021/12/13 05:44:33;;;;;;;20.33;12.70;;;5.10;99.90;;;;;;5019512;28;20072;-69
2021/12/13 05:47:05;;;;;;;22.45;12.45;;;5.00;99.90;;;;;;5031498;28;20049;-69
2021/12/13 05:49:40;;;;;;;22.70;12.55;;;5.00;99.90;;;;;;5029970;28;20494;-68
2021/12/13 05:52:14;;;;;;;23.88;12.70;;;5.00;99.90;;;;;;5025320;28;20034;-68
2021/12/13 05:54:45;;;;;;;20.00;11.98;;;5.00;99.90;;;;;;5029114;28;20054;-69
2021/12/13 05:57:23;;;;;;;23.88;13.98;;;5.00;99.90;;;;;;5029226;28;20124;-68
2021/12/13 05:59:51;;;;;;;21.67;13.18;;;5.10;99.90;;;;;;5031179;28;20084;-68
2021/12/13 06:02:28;;;;;;;18.52;11.40;;;5.00;99.90;;;;;;5031415;28;20042;-68
2021/12/13 06:05:07;;;;;;;19.88;11.35;;;5.10;99.90;;;;;;5025194;28;20049;-67
2021/12/13 06:07:38;;;;;;;20.88;12.38;;;5.10;99.90;;;;;;5024210;28;20046;-68
2021/12/13 06:10:10;;;;;;;21.43;12.83;;;5.10;99.90;;;;;;5031265;28;20061;-68
2021/12/13 06:12:40;;;;;;;21.52;12.88;;;5.10;99.90;;;;;;5031573;28;20447;-69
2021/12/13 06:15:16;;;;;;;19.83;12.85;;;5.10;99.90;;;;;;5029892;28;20121;-68
2021/12/13 06:18:04;;;;;;;20.55;12.00;;;5.10;99.90;;;;;;5030986;28;20492;-68
2021/12/13 06:20:38;;;;;;;21.95;12.32;;;5.10;99.90;;;;;;5025457;28;20153;-68
2021/12/13 06:23:16;;;;;;;21.55;12.52;;;5.10;99.90;;;;;;5030948;28;20358;-68
2021/12/13 06:25:47;;;;;;;21.50;12.52;;;5.10;99.90;;;;;;5030293;28;20076;-68
2021/12/13 06:28:22;;;;;;;21.98;12.60;;;5.10;99.90;;;;;;5030858;28;20045;-68
2021/12/13 06:31:09;;;;;;;20.83;11.82;;;5.10;99.90;;;;;;5021357;28;20046;-68
2021/12/13 06:33:57;;;;;;;21.40;12.85;;;5.10;99.90;;;;;;5029273;28;20061;-68
2021/12/13 06:36:41;;;;;;;23.35;14.25;;;5.10;99.90;;;;;;5025748;28;20041;-68
2021/12/13 06:39:22;;;;;;;22.90;13.10;;;5.20;99.90;;;;;;5023704;28;20038;-68
2021/12/13 06:41:59;;;;;;;22.70;12.93;;;5.20;99.90;;;;;;5027862;28;20041;-68
2021/12/13 06:44:37;;;;;;;21.13;12.73;;;5.10;99.90;;;;;;5027180;28;20045;-68
2021/12/13 06:47:20;;;;;;;21.52;12.82;;;5.20;99.90;;;;;;5026451;28;20099;-68
2021/12/13 06:49:53;;;;;;;23.30;14.23;;;5.20;99.90;;;;;;5027332;28;20400;-68
2021/12/13 06:52:32;;;;;;;25.00;14.77;;;5.20;99.90;;;;;;5022588;28;20052;-69
2021/12/13 06:55:14;;;;;;;24.98;14.82;;;5.20;99.90;;;;;;5029948;28;20060;-69
2021/12/13 06:57:54;;;;;;;27.23;16.25;;;5.20;99.90;;;;;;5015714;28;20395;-68
2021/12/13 07:00:21;;;;;;;23.58;15.02;;;5.20;99.90;;;;;;5027894;28;20044;-68
2021/12/13 07:02:51;;;;;;;26.23;15.10;;;5.20;99.90;;;;;;5021065;28;20084;-68
2021/12/13 07:05:28;;;;;;;24.05;15.07;;;5.20;99.90;;;;;;5021819;28;20042;-68
2021/12/13 07:08:04;;;;;;;25.42;14.48;;;5.30;99.90;;;;;;5029925;28;20048;-68
2021/12/13 07:10:45;;;;;;;24.77;14.23;;;5.30;99.90;;;;;;5022258;28;20118;-68
2021/12/13 07:13:33;;;;;;;23.60;13.32;;;5.30;99.90;;;;;;5028848;28;20049;-68
2021/12/13 07:16:07;;;;;;;24.33;13.68;;;5.30;99.90;;;;;;5031817;28;20041;-68
2021/12/13 07:18:44;;;;;;;25.58;14.32;;;5.30;99.90;;;;;;5029021;28;20041;-69
2021/12/13 07:21:26;;;;;;;22.15;13.75;;;5.30;99.90;;;;;;5029885;28;20049;-68
2021/12/13 07:24:09;;;;;;;22.77;14.18;;;5.30;99.90;;;;;;5016328;28;20500;-69
2021/12/13 07:26:52;;;;;;;21.77;12.68;;;5.30;99.90;;;;;;5024151;28;20052;-69
2021/12/13 07:29:29;;;;;;;26.13;15.48;;;5.30;99.90;;;;;;5018352;28;20056;-69
2021/12/13 07:32:02;;;;;;;25.20;15.15;;;5.40;99.90;;;;;;5024073;28;20064;-68
2021/12/13 07:34:30;;;;;;;23.33;13.95;;;5.30;99.90;;;;;;5027353;28;20409;-68
2021/12/13 07:37:02;;;;;;;23.90;13.95;;;5.40;99.90;;;;;;5018047;28;20042;-68
2021/12/13 07:39:32;;;;;;;22.95;14.15;;;5.40;99.90;;;;;;5018779;28;20069;-68
2021/12/13 07:42:05;;;;;;;22.48;13.23;;;5.40;99.90;;;;;;5023843;28;20048;-69
2021/12/13 07:44:35;;;;;;;20.60;13.02;;;5.50;99.90;;;;;;5032967;28;20045;-68
2021/12/13 07:47:13;;;;;;;26.95;14.32;;;5.50;99.90;;;;;;5026604;28;20050;-69
2021/12/13 07:49:45;;;;;;;21.40;12.88;;;5.50;99.90;;;;;;5043805;28;20041;-69
2021/12/13 07:52:27;;;;;;;21.48;13.27;;;5.50;99.90;;;;;;5028090;28;20045;-68
2021/12/13 07:54:55;;;;;;;27.48;14.73;;;5.60;99.90;;;;;;5028297;28;20052;-69
2021/12/13 07:57:30;;;;;;;26.98;14.00;;;5.60;99.90;;;;;;5013618;28;20045;-69
2021/12/13 07:59:58;;;;;;;22.75;13.57;;;5.60;99.90;;;;;;5027301;28;20054;-69
2021/12/13 08:02:33;;;;;;;20.77;12.48;;;5.60;99.90;;;;;;5027869;28;20045;-68
2021/12/13 08:05:12;;;;;;;21.33;12.77;;;5.60;99.90;;;;;;5028494;28;20198;-69
2021/12/13 08:07:53;;;;;;;23.55;13.45;;;5.70;99.90;;;;;;5022561;28;20053;-68
2021/12/13 08:10:39;;;;;;;21.38;12.90;;;5.70;99.90;;;;;;5025621;28;20041;-68
2021/12/13 08:13:15;;;;;;;19.55;12.73;;;5.70;99.90;;;;;;5026829;28;20119;-68
2021/12/13 08:15:55;;;;;;;21.50;12.75;;;5.70;99.90;;;;;;5028350;28;20052;-68
2021/12/13 08:18:22;;;;;;;25.98;13.38;;;5.70;99.90;;;;;;5018753;28;20087;-68
2021/12/13 08:21:13;;;;;;;20.75;11.80;;;5.80;99.90;;;;;;5017809;28;20045;-68
2021/12/13 08:23:49;;;;;;;21.27;12.88;;;5.80;99.90;;;;;;5025816;28;20053;-68
2021/12/13 08:26:27;;;;;;;20.30;11.85;;;5.90;99.90;;;;;;5021673;28;20046;-68
2021/12/13 08:28:57;;;;;;;20.67;12.23;;;5.80;99.90;;;;;;5022562;28;20049;-68
2021/12/13 08:31:33;;;;;;;19.58;11.80;;;5.80;99.90;;;;;;5028289;28;20053;-68
2021/12/13 08:34:05;;;;;;;22.30;12.07;;;5.90;99.90;;;;;;5028885;28;20046;-68
2021/12/13 08:36:42;;;;;;;21.08;12.65;;;5.90;99.90;;;;;;5032971;28;20479;-68
2021/12/13 08:39:25;;;;;;;19.98;11.55;;;6.00;99.90;;;;;;5032629;28;20056;-68
2021/12/13 08:42:09;;;;;;;20.90;12.90;;;6.00;99.90;;;;;;5027311;28;20046;-68
2021/12/13 08:44:54;;;;;;;20.38;12.07;;;6.10;99.90;;;;;;5026831;28;20112;-69
2021/12/13 08:47:31;;;;;;;19.52;10.75;;;6.10;99.90;;;;;;5021915;28;20049;-68
2021/12/13 08:50:04;;;;;;;19.25;11.70;;;6.20;99.90;;;;;;5026684;28;20099;-68
2021/12/13 08:52:36;;;;;;;21.63;13.18;;;6.20;99.90;;;;;;5023286;28;20049;-68
2021/12/13 08:55:06;;;;;;;22.10;13.17;;;6.30;99.90;;;;;;5024636;28;20056;-68
2021/12/13 08:57:40;;;;;;;18.48;12.23;;;6.30;99.90;;;;;;5012186;28;20113;-68
2021/12/13 09:00:35;;;;;;;19.83;13.10;;;6.40;99.90;;;;;;5015013;28;20716;-67
2021/12/13 09:03:22;;;;;;;17.83;11.32;;;6.50;99.90;;;;;;5027335;28;20049;-69
2021/12/13 09:05:59;;;;;;;24.10;13.20;;;6.60;99.90;;;;;;5031708;28;20676;-69
2021/12/13 09:08:32;;;;;;;21.15;11.95;;;6.70;99.90;;;;;;5028198;28;20507;-68
2021/12/13 09:11:13;;;;;;;21.35;12.70;;;6.70;99.90;;;;;;5017909;28;20072;-68
2021/12/13 09:13:49;;;;;;;18.83;11.63;;;6.80;99.90;;;;;;5025713;28;20046;-69
2021/12/13 09:16:20;;;;;;;14.38;9.18;;;6.80;99.90;;;;;;5025585;28;20049;-69
2021/12/13 09:19:25;;;;;;;14.87;9.20;;;6.90;99.90;;;;;;5027252;28;20099;-69
2021/12/13 09:22:07;;;;;;;15.23;10.10;;;6.90;99.90;;;;;;5019111;28;20061;-69
2021/12/13 09:24:43;;;;;;;15.07;10.47;;;6.90;99.90;;;;;;5027774;28;20056;-69
2021/12/13 09:27:29;;;;;;;16.70;10.98;;;6.90;99.90;;;;;;5020231;28;20054;-69
2021/12/13 09:30:03;;;;;;;18.00;11.77;;;6.90;99.90;;;;;;5017845;28;20053;-69
2021/12/13 09:32:37;;;;;;;17.08;10.95;;;6.90;99.90;;;;;;5032194;28;20049;-69
2021/12/13 09:35:46;;;;;;;18.48;11.48;;;6.90;99.90;;;;;;5016350;28;20049;-68
2021/12/13 09:38:31;;;;;;;15.02;10.27;;;6.90;99.90;;;;;;5027862;28;20041;-68
2021/12/13 09:41:19;;;;;;;16.98;11.32;;;6.90;99.90;;;;;;5028243;28;20033;-68
2021/12/13 09:44:29;;;;;;;21.23;12.68;;;6.90;99.90;;;;;;5028713;28;20061;-69
2021/12/13 09:46:56;;;;;;;18.33;10.98;;;6.90;99.90;;;;;;5022693;28;20493;-69
2021/12/13 09:49:33;;;;;;;15.73;10.07;;;6.80;99.90;;;;;;5027825;28;20053;-68
2021/12/13 09:52:09;;;;;;;19.52;11.40;;;7.00;99.90;;;;;;5014667;28;20041;-68
2021/12/13 09:55:02;;;;;;;22.23;12.00;;;7.00;99.90;;;;;;5018665;28;20159;-69
2021/12/13 09:57:49;;;;;;;18.92;11.38;;;7.00;99.90;;;;;;5018454;28;20033;-69
2021/12/13 10:00:27;;;;;;;17.70;11.05;;;7.10;99.90;;;;;;5028779;28;20045;-68
2021/12/13 10:03:00;;;;;;;18.20;10.77;;;7.00;99.90;;;;;;5021686;28;20438;-69
2021/12/13 10:05:32;;;;;;;20.27;11.48;;;7.00;99.90;;;;;;5030551;28;20835;-68
2021/12/13 10:08:06;;;;;;;16.92;11.50;;;7.10;99.90;;;;;;5031695;28;20049;-68
2021/12/13 10:10:45;;;;;;;18.20;11.82;;;7.00;99.90;;;;;;5030668;28;20045;-68
2021/12/13 10:13:17;;;;;;;25.90;15.18;;;7.00;99.90;;;;;;5030174;28;20057;-68
2021/12/13 10:15:58;;;;;;;18.67;11.65;;;7.20;99.90;;;;;;5028844;28;20052;-68
2021/12/13 10:18:30;;;;;;;18.88;11.43;;;7.20;99.90;;;;;;5019147;28;20058;-68
2021/12/13 10:21:21;;;;;;;17.60;11.27;;;7.20;99.90;;;;;;5026074;28;20045;-68
2021/12/13 10:23:53;;;;;;;18.80;11.50;;;7.30;99.90;;;;;;5020145;28;20064;-69
2021/12/13 10:26:30;;;;;;;14.93;10.55;;;7.30;99.90;;;;;;5006559;28;20407;-70
2021/12/13 10:29:00;;;;;;;25.70;12.18;;;7.40;99.90;;;;;;5030887;28;20076;-69
2021/12/13 10:31:45;;;;;;;17.05;11.25;;;7.40;99.90;;;;;;5026377;28;20046;-69
2021/12/13 10:34:19;;;;;;;17.00;10.25;;;7.30;99.90;;;;;;5012361;28;20123;-69
2021/12/13 10:36:52;;;;;;;18.00;11.00;;;7.30;99.90;;;;;;5027686;28;20044;-69
2021/12/13 10:39:26;;;;;;;16.73;11.60;;;7.30;99.90;;;;;;5024340;28;20052;-69
2021/12/13 10:42:19;;;;;;;27.37;15.20;;;7.30;99.90;;;;;;5029133;28;20046;-68
2021/12/13 10:44:48;;;;;;;16.85;10.98;;;7.30;99.90;;;;;;5023105;28;20377;-69
2021/12/13 10:47:24;;;;;;;17.70;11.85;;;7.40;99.90;;;;;;5023885;28;20056;-69
2021/12/13 10:49:53;;;;;;;18.85;12.32;;;7.50;99.90;;;;;;5028202;28;20042;-69
2021/12/13 10:52:31;;;;;;;18.08;12.20;;;7.60;99.90;;;;;;5029214;28;20042;-68
2021/12/13 10:55:05;;;;;;;18.35;11.48;;;7.60;99.90;;;;;;5032038;28;20060;-68
2021/12/13 10:57:39;;;;;;;17.65;11.20;;;7.60;99.90;;;;;;5016325;28;20091;-67
2021/12/13 11:00:14;;;;;;;17.65;10.82;;;7.60;99.90;;;;;;5016273;28;20053;-67
2021/12/13 11:02:41;;;;;;;16.77;10.70;;;7.50;99.90;;;;;;5028566;28;20046;-68
2021/12/13 11:05:15;;;;;;;15.77;10.40;;;7.50;99.90;;;;;;5014528;28;20072;-69
2021/12/13 11:07:43;;;;;;;17.25;11.98;;;7.40;99.90;;;;;;5025449;28;20057;-68
2021/12/13 11:10:14;;;;;;;15.80;10.00;;;7.40;99.90;;;;;;5026862;28;20045;-69
2021/12/13 11:12:47;;;;;;;17.10;10.80;;;7.40;99.90;;;;;;5021601;28;20046;-69
2021/12/13 11:15:29;;;;;;;16.73;10.73;;;7.40;99.90;;;;;;5022019;28;20504;-68
2021/12/13 11:17:58;;;;;;;18.42;11.93;;;7.40;99.90;;;;;;5020201;28;20144;-68
2021/12/13 11:20:31;;;;;;;14.38;9.20;;;7.50;99.90;;;;;;5031222;28;20071;-69
2021/12/13 11:22:59;;;;;;;16.00;9.80;;;7.50;99.90;;;;;;5013079;28;20049;-69
2021/12/13 11:25:34;;;;;;;13.63;9.40;;;7.50;99.90;;;;;;5023977;28;20492;-69
2021/12/13 11:28:04;;;;;;;12.52;9.00;;;7.40;99.90;;;;;;5026881;28;20033;-69
2021/12/13 11:30:34;;;;;;;12.27;8.57;;;7.50;99.90;;;;;;5025241;28;20042;-69
2021/12/13 11:33:44;;;;;;;13.25;8.65;;;7.50;99.90;;;;;;5025227;28;20096;-69
2021/12/13 11:36:32;;;;;;;15.63;9.48;;;7.60;99.90;;;;;;5017796;28;20124;-69
2021/12/13 11:39:32;;;;;;;18.10;11.52;;;7.40;99.90;;;;;;5022576;28;20091;-69
2021/12/13 11:42:07;;;;;;;17.67;12.30;;;7.40;99.90;;;;;;5028315;28;20042;-69
2021/12/13 11:45:05;;;;;;;13.73;8.65;;;7.40;99.90;;;;;;5010313;28;20041;-69
2021/12/13 11:47:54;;;;;;;12.57;8.60;;;7.50;99.90;;;;;;5029150;28;20045;-69
2021/12/13 11:50:59;;;;;;;16.40;10.73;;;7.50;99.90;;;;;;5022548;28;20038;-70
2021/12/13 11:53:58;;;;;;;11.75;8.10;;;7.60;99.90;;;;;;5020188;28;20057;-69
2021/12/13 11:56:59;;;;;;;13.27;8.15;;;7.50;99.90;;;;;;5018845;28;20056;-70
2021/12/13 12:00:04;;;;;;;13.02;8.65;;;7.50;99.90;;;;;;5028657;28;20053;-68
2021/12/13 12:03:16;;;;;;;13.88;9.95;;;7.50;99.90;;;;;;5018184;28;20493;-68
2021/12/13 12:06:08;;;;;;;11.98;8.70;;;7.50;99.90;;;;;;5025264;28;20045;-69
2021/12/13 12:08:35;;;;;;;14.87;8.53;;;7.50;99.90;;;;;;5023537;28;20048;-69
2021/12/13 12:11:28;;;;;;;17.70;10.75;;;7.50;99.90;;;;;;5026978;28;20099;-69
2021/12/13 12:14:05;;;;;;;18.40;9.90;;;7.50;99.90;;;;;;5025570;28;20041;-68
2021/12/13 12:16:47;;;;;;;15.45;10.07;;;7.50;99.90;;;;;;5027522;28;20324;-68
2021/12/13 12:19:21;;;;;;;15.48;11.10;;;7.50;99.90;;;;;;5028407;28;20069;-69
2021/12/13 12:21:52;;;;;;;14.23;9.85;;;7.50;99.90;;;;;;5015620;28;20037;-69
2021/12/13 12:24:41;;;;;;;11.45;7.72;;;7.50;99.90;;;;;;5019534;28;20045;-69
2021/12/13 12:27:13;;;;;;;13.30;9.73;;;7.60;99.90;;;;;;5020219;28;20049;-69
2021/12/13 12:29:42;;;;;;;;;;;7.60;99.90;;;;;;5028671;28;20044;-69
2021/12/13 12:32:20;;;;;;;12.52;8.55;;;7.60;99.90;;;;;;5023826;28;20367;-69
2021/12/13 12:34:51;;;;;;;14.40;9.85;;;7.60;99.90;;;;;;5027555;28;20051;-69
2021/12/13 12:37:33;;;;;;;16.27;10.15;;;7.70;99.90;;;;;;5028262;28;20199;-69
2021/12/13 12:40:07;;;;;;;13.93;8.40;;;7.70;99.90;;;;;;5028086;28;20060;-69
2021/12/13 12:42:44;;;;;;;14.07;8.70;;;7.70;99.90;;;;;;5015932;28;20245;-69
2021/12/13 12:45:24;;;;;;;12.10;8.25;;;7.60;99.90;;;;;;5020063;28;20042;-69
2021/12/13 12:47:55;;;;;;;12.48;8.90;;;7.60;99.90;;;;;;5015629;28;20068;-70
2021/12/13 12:50:28;;;;;;;13.77;9.25;;;7.70;99.90;;;;;;5014168;28;20073;-69
2021/12/13 12:53:00;;;;;;;13.70;9.38;;;7.60;99.90;;;;;;5022803;28;20041;-69
2021/12/13 12:55:35;;;;;;;12.57;9.00;;;7.60;99.90;;;;;;5021875;28;20050;-70
2021/12/13 12:58:13;;;;;;;11.63;9.00;;;7.50;99.90;;;;;;5023202;28;20044;-68
2021/12/13 13:00:42;;;;;;;11.93;8.75;;;7.60;99.90;;;;;;5023669;28;20037;-68
2021/12/13 13:03:22;;;;;;;14.18;9.30;;;7.50;99.90;;;;;;5027223;28;20076;-69
2021/12/13 13:05:50;;;;;;;13.88;9.18;;;7.60;99.90;;;;;;5027579;28;20038;-68
2021/12/13 13:08:29;;;;;;;12.60;8.95;;;7.50;99.90;;;;;;5028092;28;20053;-69
2021/12/13 13:13:44;;;;;;;11.23;7.78;;;7.50;99.90;;;;;;5021878;28;20046;-68
2021/12/13 13:16:17;;;;;;;14.70;9.35;;;7.50;99.90;;;;;;5024878;28;20408;-68
2021/12/13 13:18:45;;;;;;;13.93;8.85;;;7.60;99.90;;;;;;5028496;28;20076;-68
2021/12/13 13:21:15;;;;;;;12.20;7.85;;;7.60;99.90;;;;;;5022675;28;20049;-68
2021/12/13 13:23:50;;;;;;;10.65;7.68;;;7.60;99.90;;;;;;5040391;28;20095;-68
2021/12/13 13:26:18;;;;;;;14.85;9.63;;;7.50;99.90;;;;;;5013722;28;20041;-68
2021/12/13 13:28:50;;;;;;;12.52;8.35;;;7.60;99.90;;;;;;5027936;28;20060;-68
2021/12/13 13:31:38;;;;;;;;;;;7.60;99.90;;;;;;5032065;28;20060;-68
2021/12/13 13:34:12;;;;;;;9.43;6.55;;;7.70;99.90;;;;;;5026649;28;20324;-68
2021/12/13 13:36:39;;;;;;;12.73;8.40;;;7.80;99.90;;;;;;5023806;28;20090;-68
2021/12/13 13:39:19;;;;;;;11.13;7.88;;;7.90;99.90;;;;;;5037194;28;20041;-68
2021/12/13 13:41:53;;;;;;;10.10;7.25;;;7.90;99.90;;;;;;5018264;28;20420;-68
2021/12/13 13:44:24;;;;;;;10.60;6.90;;;7.90;99.90;;;;;;5028808;28;20048;-68
2021/12/13 13:47:09;;;;;;;11.77;8.15;;;7.90;99.90;;;;;;5021914;28;20045;-68
2021/12/13 13:49:38;;;;;;;14.63;8.95;;;7.90;99.90;;;;;;5029576;28;20495;-68